sensor_id;sensor_type;location;lat;lon;timestamp;P1;durP1;ratioP1;P2;durP2;ratioP2
38479;SDS011;62333;51.980;5.934;2023-05-10T00:01:42;8.90;;;6.20;;
38479;SDS011;62333;51.980;5.934;2023-05-10T00:04:07;7.30;;;6.03;;
38479;SDS011;62333;51.980;5.934;2023-05-10T00:06:33;10.73;;;8.77;;
38479;SDS011;62333;51.980;5.934;2023-05-10T00:08:59;10.88;;;8.93;;
38479;SDS011;62333;51.980;5.934;2023-05-10T00:11:24;12.20;;;8.80;;
38479;SDS011;62333;51.980;5.934;2023-05-10T00:13:50;12.43;;;10.23;;
38479;SDS011;62333;51.980;5.934;2023-05-10T00:16:16;12.60;;;9.60;;
38479;SDS011;62333;51.980;5.934;2023-05-10T00:18:41;14.05;;;11.13;;
38479;SDS011;62333;51.980;5.934;2023-05-10T00:21:07;13.65;;;11.18;;
38479;SDS011;62333;51.980;5.934;2023-05-10T00:23:33;13.23;;;11.60;;
38479;SDS011;62333;51.980;5.934;2023-05-10T00:25:58;14.25;;;11.18;;
38479;SDS011;62333;51.980;5.934;2023-05-10T00:28:24;15.10;;;11.52;;
38479;SDS011;62333;51.980;5.934;2023-05-10T00:30:49;14.55;;;11.60;;
38479;SDS011;62333;51.980;5.934;2023-05-10T00:33:15;14.52;;;11.90;;
38479;SDS011;62333;51.980;5.934;2023-05-10T00:35:41;14.82;;;11.65;;
38479;SDS011;62333;51.980;5.934;2023-05-10T00:38:07;15.40;;;12.05;;
38479;SDS011;62333;51.980;5.934;2023-05-10T00:40:32;18.65;;;14.65;;
38479;SDS011;62333;51.980;5.934;2023-05-10T00:42:58;18.65;;;14.68;;
38479;SDS011;62333;51.980;5.934;2023-05-10T00:45:25;17.52;;;13.73;;
38479;SDS011;62333;51.980;5.934;2023-05-10T00:47:52;19.35;;;14.10;;
38479;SDS011;62333;51.980;5.934;2023-05-10T00:50:20;18.40;;;15.32;;
38479;SDS011;62333;51.980;5.934;2023-05-10T00:52:49;21.60;;;16.63;;
38479;SDS011;62333;51.980;5.934;2023-05-10T00:55:15;18.05;;;15.82;;
38479;SDS011;62333;51.980;5.934;2023-05-10T00:57:41;18.90;;;15.32;;
38479;SDS011;62333;51.980;5.934;2023-05-10T01:00:07;23.88;;;17.08;;
38479;SDS011;62333;51.980;5.934;2023-05-10T01:02:34;20.48;;;16.60;;
38479;SDS011;62333;51.980;5.934;2023-05-10T01:05:01;21.35;;;17.23;;
38479;SDS011;62333;51.980;5.934;2023-05-10T01:07:28;21.58;;;16.85;;
38479;SDS011;62333;51.980;5.934;2023-05-10T01:09:54;22.77;;;18.60;;
38479;SDS011;62333;51.980;5.934;2023-05-10T01:12:20;21.83;;;15.88;;
38479;SDS011;62333;51.980;5.934;2023-05-10T01:14:46;25.25;;;18.58;;
38479;SDS011;62333;51.980;5.934;2023-05-10T01:17:13;23.75;;;18.63;;
38479;SDS011;62333;51.980;5.934;2023-05-10T01:19:39;27.65;;;20.30;;
38479;SDS011;62333;51.980;5.934;2023-05-10T01:38:40;20.95;;;17.50;;
38479;SDS011;62333;51.980;5.934;2023-05-10T01:41:19;23.88;;;18.90;;
38479;SDS011;62333;51.980;5.934;2023-05-10T01:43:53;24.02;;;18.52;;
38479;SDS011;62333;51.980;5.934;2023-05-10T01:46:24;24.50;;;18.00;;
38479;SDS011;62333;51.980;5.934;2023-05-10T01:48:57;22.33;;;17.70;;
38479;SDS011;62333;51.980;5.934;2023-05-10T01:51:26;23.60;;;18.17;;
38479;SDS011;62333;51.980;5.934;2023-05-10T01:54:00;22.10;;;18.02;;
38479;SDS011;62333;51.980;5.934;2023-05-10T01:56:28;22.15;;;17.85;;
38479;SDS011;62333;51.980;5.934;2023-05-10T01:58:57;20.25;;;15.65;;
38479;SDS011;62333;51.980;5.934;2023-05-10T02:01:25;20.10;;;16.52;;
38479;SDS011;62333;51.980;5.934;2023-05-10T02:03:52;22.23;;;17.38;;
38479;SDS011;62333;51.980;5.934;2023-05-10T02:06:20;21.20;;;16.35;;
38479;SDS011;62333;51.980;5.934;2023-05-10T02:08:47;22.38;;;17.77;;
38479;SDS011;62333;51.980;5.934;2023-05-10T02:11:15;23.55;;;17.83;;
38479;SDS011;62333;51.980;5.934;2023-05-10T02:13:46;21.75;;;16.63;;
38479;SDS011;62333;51.980;5.934;2023-05-10T02:16:14;25.08;;;18.13;;
38479;SDS011;62333;51.980;5.934;2023-05-10T02:18:42;22.52;;;16.25;;
38479;SDS011;62333;51.980;5.934;2023-05-10T02:21:08;23.48;;;17.05;;
38479;SDS011;62333;51.980;5.934;2023-05-10T02:23:35;24.10;;;18.58;;
38479;SDS011;62333;51.980;5.934;2023-05-10T02:26:02;26.15;;;18.05;;
38479;SDS011;62333;51.980;5.934;2023-05-10T02:28:30;22.63;;;17.60;;
38479;SDS011;62333;51.980;5.934;2023-05-10T02:30:57;22.15;;;17.80;;
38479;SDS011;62333;51.980;5.934;2023-05-10T02:33:24;23.13;;;17.00;;
38479;SDS011;62333;51.980;5.934;2023-05-10T02:35:51;21.90;;;17.38;;
38479;SDS011;62333;51.980;5.934;2023-05-10T02:38:19;24.17;;;17.60;;
38479;SDS011;62333;51.980;5.934;2023-05-10T02:40:46;24.92;;;18.33;;
38479;SDS011;62333;51.980;5.934;2023-05-10T02:43:14;26.75;;;18.98;;
38479;SDS011;62333;51.980;5.934;2023-05-10T02:45:42;27.88;;;19.73;;
38479;SDS011;62333;51.980;5.934;2023-05-10T02:48:09;25.48;;;18.45;;
38479;SDS011;62333;51.980;5.934;2023-05-10T02:50:35;25.00;;;17.35;;
38479;SDS011;62333;51.980;5.934;2023-05-10T02:53:06;25.92;;;18.25;;
38479;SDS011;62333;51.980;5.934;2023-05-10T02:55:37;26.88;;;19.40;;
38479;SDS011;62333;51.980;5.934;2023-05-10T02:58:05;32.63;;;21.98;;
38479;SDS011;62333;51.980;5.934;2023-05-10T03:00:30;29.17;;;22.40;;
38479;SDS011;62333;51.980;5.934;2023-05-10T03:02:57;30.88;;;20.25;;
38479;SDS011;62333;51.980;5.934;2023-05-10T03:05:23;33.42;;;23.92;;
38479;SDS011;62333;51.980;5.934;2023-05-10T03:07:48;29.20;;;20.10;;
38479;SDS011;62333;51.980;5.934;2023-05-10T03:10:15;33.30;;;22.63;;
38479;SDS011;62333;51.980;5.934;2023-05-10T03:15:36;33.72;;;23.85;;
38479;SDS011;62333;51.980;5.934;2023-05-10T03:18:28;33.40;;;22.92;;
38479;SDS011;62333;51.980;5.934;2023-05-10T03:21:02;33.35;;;23.15;;
38479;SDS011;62333;51.980;5.934;2023-05-10T03:23:34;30.88;;;22.60;;
38479;SDS011;62333;51.980;5.934;2023-05-10T03:26:05;38.40;;;25.50;;
38479;SDS011;62333;51.980;5.934;2023-05-10T03:28:32;32.55;;;23.58;;
38479;SDS011;62333;51.980;5.934;2023-05-10T03:31:00;37.08;;;25.60;;
38479;SDS011;62333;51.980;5.934;2023-05-10T03:33:27;39.72;;;27.55;;
38479;SDS011;62333;51.980;5.934;2023-05-10T03:35:53;35.53;;;25.98;;
38479;SDS011;62333;51.980;5.934;2023-05-10T03:38:19;31.08;;;22.98;;
38479;SDS011;62333;51.980;5.934;2023-05-10T03:40:45;32.45;;;23.65;;
38479;SDS011;62333;51.980;5.934;2023-05-10T03:43:10;35.47;;;22.90;;
38479;SDS011;62333;51.980;5.934;2023-05-10T03:45:36;34.90;;;23.40;;
38479;SDS011;62333;51.980;5.934;2023-05-10T03:48:01;31.40;;;22.52;;
38479;SDS011;62333;51.980;5.934;2023-05-10T03:50:27;32.28;;;23.73;;
38479;SDS011;62333;51.980;5.934;2023-05-10T03:52:53;31.25;;;21.42;;
38479;SDS011;62333;51.980;5.934;2023-05-10T03:55:19;33.88;;;23.60;;
38479;SDS011;62333;51.980;5.934;2023-05-10T03:57:44;32.85;;;22.73;;
38479;SDS011;62333;51.980;5.934;2023-05-10T04:00:10;29.17;;;23.08;;
38479;SDS011;62333;51.980;5.934;2023-05-10T04:02:36;30.58;;;23.48;;
38479;SDS011;62333;51.980;5.934;2023-05-10T04:05:02;33.40;;;23.45;;
38479;SDS011;62333;51.980;5.934;2023-05-10T04:07:28;30.95;;;20.38;;
38479;SDS011;62333;51.980;5.934;2023-05-10T04:09:54;30.50;;;20.63;;
38479;SDS011;62333;51.980;5.934;2023-05-10T04:12:19;27.95;;;21.85;;
38479;SDS011;62333;51.980;5.934;2023-05-10T04:14:45;31.92;;;21.35;;
38479;SDS011;62333;51.980;5.934;2023-05-10T04:17:11;31.02;;;21.63;;
38479;SDS011;62333;51.980;5.934;2023-05-10T04:19:36;32.53;;;22.27;;
38479;SDS011;62333;51.980;5.934;2023-05-10T04:22:02;30.60;;;20.98;;
38479;SDS011;62333;51.980;5.934;2023-05-10T04:24:28;32.28;;;20.50;;
38479;SDS011;62333;51.980;5.934;2023-05-10T04:26:54;29.23;;;21.35;;
38479;SDS011;62333;51.980;5.934;2023-05-10T04:29:20;31.50;;;22.00;;
38479;SDS011;62333;51.980;5.934;2023-05-10T04:31:46;31.88;;;21.85;;
38479;SDS011;62333;51.980;5.934;2023-05-10T04:34:11;26.52;;;19.58;;
38479;SDS011;62333;51.980;5.934;2023-05-10T04:36:37;28.35;;;19.65;;
38479;SDS011;62333;51.980;5.934;2023-05-10T04:39:04;27.55;;;21.27;;
38479;SDS011;62333;51.980;5.934;2023-05-10T04:41:30;23.85;;;17.77;;
38479;SDS011;62333;51.980;5.934;2023-05-10T04:43:56;31.25;;;20.20;;
38479;SDS011;62333;51.980;5.934;2023-05-10T04:46:21;23.67;;;16.80;;
38479;SDS011;62333;51.980;5.934;2023-05-10T04:48:47;26.30;;;17.23;;
38479;SDS011;62333;51.980;5.934;2023-05-10T04:51:13;29.58;;;19.58;;
38479;SDS011;62333;51.980;5.934;2023-05-10T04:53:38;28.15;;;18.92;;
38479;SDS011;62333;51.980;5.934;2023-05-10T04:56:04;24.48;;;18.02;;
38479;SDS011;62333;51.980;5.934;2023-05-10T04:58:30;26.75;;;17.35;;
38479;SDS011;62333;51.980;5.934;2023-05-10T05:00:56;26.30;;;16.90;;
38479;SDS011;62333;51.980;5.934;2023-05-10T05:03:21;26.33;;;17.58;;
38479;SDS011;62333;51.980;5.934;2023-05-10T05:05:47;25.88;;;18.55;;
38479;SDS011;62333;51.980;5.934;2023-05-10T05:08:13;26.42;;;16.52;;
38479;SDS011;62333;51.980;5.934;2023-05-10T05:10:39;28.80;;;19.17;;
38479;SDS011;62333;51.980;5.934;2023-05-10T05:13:05;28.63;;;17.67;;
38479;SDS011;62333;51.980;5.934;2023-05-10T05:15:31;23.58;;;18.35;;
38479;SDS011;62333;51.980;5.934;2023-05-10T05:17:56;29.05;;;20.00;;
38479;SDS011;62333;51.980;5.934;2023-05-10T05:20:22;24.58;;;17.45;;
38479;SDS011;62333;51.980;5.934;2023-05-10T05:22:48;29.15;;;16.73;;
38479;SDS011;62333;51.980;5.934;2023-05-10T05:25:14;27.00;;;17.42;;
38479;SDS011;62333;51.980;5.934;2023-05-10T05:27:40;28.63;;;19.30;;
38479;SDS011;62333;51.980;5.934;2023-05-10T05:30:06;26.80;;;17.50;;
38479;SDS011;62333;51.980;5.934;2023-05-10T05:32:32;27.73;;;17.90;;
38479;SDS011;62333;51.980;5.934;2023-05-10T05:34:58;24.85;;;16.45;;
38479;SDS011;62333;51.980;5.934;2023-05-10T05:37:24;27.35;;;19.17;;
38479;SDS011;62333;51.980;5.934;2023-05-10T05:39:50;26.10;;;17.85;;
38479;SDS011;62333;51.980;5.934;2023-05-10T05:42:15;27.48;;;18.70;;
38479;SDS011;62333;51.980;5.934;2023-05-10T05:44:43;36.45;;;23.27;;
38479;SDS011;62333;51.980;5.934;2023-05-10T05:47:09;27.85;;;19.70;;
38479;SDS011;62333;51.980;5.934;2023-05-10T05:49:35;25.85;;;17.80;;
38479;SDS011;62333;51.980;5.934;2023-05-10T05:52:01;24.80;;;18.80;;
38479;SDS011;62333;51.980;5.934;2023-05-10T05:54:28;23.88;;;15.95;;
38479;SDS011;62333;51.980;5.934;2023-05-10T05:56:55;24.52;;;17.00;;
38479;SDS011;62333;51.980;5.934;2023-05-10T05:59:23;25.95;;;19.23;;
38479;SDS011;62333;51.980;5.934;2023-05-10T06:01:49;24.67;;;19.30;;
38479;SDS011;62333;51.980;5.934;2023-05-10T06:04:15;23.00;;;16.38;;
38479;SDS011;62333;51.980;5.934;2023-05-10T06:06:41;23.65;;;16.55;;
38479;SDS011;62333;51.980;5.934;2023-05-10T06:09:07;28.77;;;17.92;;
38479;SDS011;62333;51.980;5.934;2023-05-10T06:11:33;25.55;;;18.25;;
38479;SDS011;62333;51.980;5.934;2023-05-10T06:13:59;30.00;;;18.17;;
38479;SDS011;62333;51.980;5.934;2023-05-10T06:16:25;26.20;;;17.63;;
38479;SDS011;62333;51.980;5.934;2023-05-10T06:18:51;24.80;;;15.60;;
38479;SDS011;62333;51.980;5.934;2023-05-10T06:21:16;26.60;;;16.60;;
38479;SDS011;62333;51.980;5.934;2023-05-10T06:23:42;26.55;;;17.33;;
38479;SDS011;62333;51.980;5.934;2023-05-10T06:26:08;35.10;;;20.00;;
38479;SDS011;62333;51.980;5.934;2023-05-10T06:28:34;32.20;;;18.83;;
38479;SDS011;62333;51.980;5.934;2023-05-10T06:31:03;30.77;;;17.58;;
38479;SDS011;62333;51.980;5.934;2023-05-10T06:33:29;25.25;;;18.17;;
38479;SDS011;62333;51.980;5.934;2023-05-10T06:35:55;26.75;;;18.67;;
38479;SDS011;62333;51.980;5.934;2023-05-10T06:38:20;33.00;;;21.17;;
38479;SDS011;62333;51.980;5.934;2023-05-10T06:40:46;28.48;;;19.95;;
38479;SDS011;62333;51.980;5.934;2023-05-10T06:43:12;28.63;;;19.98;;
38479;SDS011;62333;51.980;5.934;2023-05-10T06:45:37;32.30;;;21.08;;
38479;SDS011;62333;51.980;5.934;2023-05-10T06:48:03;34.55;;;21.17;;
38479;SDS011;62333;51.980;5.934;2023-05-10T06:50:29;25.13;;;18.30;;
38479;SDS011;62333;51.980;5.934;2023-05-10T06:52:55;27.38;;;19.70;;
38479;SDS011;62333;51.980;5.934;2023-05-10T06:55:20;25.60;;;16.80;;
38479;SDS011;62333;51.980;5.934;2023-05-10T06:57:46;28.70;;;18.90;;
38479;SDS011;62333;51.980;5.934;2023-05-10T07:00:13;26.20;;;19.48;;
38479;SDS011;62333;51.980;5.934;2023-05-10T07:02:39;28.08;;;20.83;;
38479;SDS011;62333;51.980;5.934;2023-05-10T07:05:05;29.52;;;19.58;;
38479;SDS011;62333;51.980;5.934;2023-05-10T07:07:30;29.13;;;17.80;;
38479;SDS011;62333;51.980;5.934;2023-05-10T07:09:56;28.00;;;19.00;;
38479;SDS011;62333;51.980;5.934;2023-05-10T07:12:22;30.02;;;17.95;;
38479;SDS011;62333;51.980;5.934;2023-05-10T07:14:49;24.73;;;18.77;;
38479;SDS011;62333;51.980;5.934;2023-05-10T07:17:14;36.30;;;19.63;;
38479;SDS011;62333;51.980;5.934;2023-05-10T07:19:40;34.80;;;22.42;;
38479;SDS011;62333;51.980;5.934;2023-05-10T07:22:06;30.08;;;21.67;;
38479;SDS011;62333;51.980;5.934;2023-05-10T07:24:32;38.78;;;23.27;;
38479;SDS011;62333;51.980;5.934;2023-05-10T07:26:58;32.97;;;21.73;;
38479;SDS011;62333;51.980;5.934;2023-05-10T07:29:24;29.30;;;20.48;;
38479;SDS011;62333;51.980;5.934;2023-05-10T07:31:50;28.25;;;18.60;;
38479;SDS011;62333;51.980;5.934;2023-05-10T07:34:16;25.30;;;18.13;;
38479;SDS011;62333;51.980;5.934;2023-05-10T07:36:41;27.20;;;20.42;;
38479;SDS011;62333;51.980;5.934;2023-05-10T07:39:07;38.03;;;22.52;;
38479;SDS011;62333;51.980;5.934;2023-05-10T07:41:33;31.13;;;24.15;;
38479;SDS011;62333;51.980;5.934;2023-05-10T07:43:59;32.40;;;21.42;;
38479;SDS011;62333;51.980;5.934;2023-05-10T07:46:25;29.42;;;18.25;;
38479;SDS011;62333;51.980;5.934;2023-05-10T07:48:50;28.20;;;18.98;;
38479;SDS011;62333;51.980;5.934;2023-05-10T07:51:16;26.90;;;19.17;;
38479;SDS011;62333;51.980;5.934;2023-05-10T07:53:41;36.15;;;22.75;;
38479;SDS011;62333;51.980;5.934;2023-05-10T07:56:20;25.80;;;19.23;;
38479;SDS011;62333;51.980;5.934;2023-05-10T07:58:48;27.23;;;17.50;;
38479;SDS011;62333;51.980;5.934;2023-05-10T08:01:14;31.27;;;19.38;;
38479;SDS011;62333;51.980;5.934;2023-05-10T08:03:39;34.53;;;20.58;;
38479;SDS011;62333;51.980;5.934;2023-05-10T08:06:05;29.75;;;19.05;;
38479;SDS011;62333;51.980;5.934;2023-05-10T08:08:31;28.85;;;19.70;;
38479;SDS011;62333;51.980;5.934;2023-05-10T08:10:57;30.40;;;19.95;;
38479;SDS011;62333;51.980;5.934;2023-05-10T08:13:22;26.52;;;17.85;;
38479;SDS011;62333;51.980;5.934;2023-05-10T08:15:48;30.58;;;20.15;;
38479;SDS011;62333;51.980;5.934;2023-05-10T08:18:14;26.90;;;17.42;;
38479;SDS011;62333;51.980;5.934;2023-05-10T08:20:39;27.90;;;17.48;;
38479;SDS011;62333;51.980;5.934;2023-05-10T08:23:05;26.52;;;18.10;;
38479;SDS011;62333;51.980;5.934;2023-05-10T08:25:31;21.02;;;15.77;;
38479;SDS011;62333;51.980;5.934;2023-05-10T08:27:56;25.10;;;15.43;;
38479;SDS011;62333;51.980;5.934;2023-05-10T08:30:22;21.23;;;15.35;;
38479;SDS011;62333;51.980;5.934;2023-05-10T08:32:48;29.25;;;20.35;;
38479;SDS011;62333;51.980;5.934;2023-05-10T08:35:13;28.27;;;18.23;;
38479;SDS011;62333;51.980;5.934;2023-05-10T08:37:40;21.98;;;16.55;;
38479;SDS011;62333;51.980;5.934;2023-05-10T08:40:06;22.65;;;16.45;;
38479;SDS011;62333;51.980;5.934;2023-05-10T08:42:34;21.65;;;16.00;;
38479;SDS011;62333;51.980;5.934;2023-05-10T08:45:03;22.02;;;14.95;;
38479;SDS011;62333;51.980;5.934;2023-05-10T08:47:30;25.13;;;17.50;;
38479;SDS011;62333;51.980;5.934;2023-05-10T08:49:56;22.85;;;16.17;;
38479;SDS011;62333;51.980;5.934;2023-05-10T08:52:24;22.40;;;15.75;;
38479;SDS011;62333;51.980;5.934;2023-05-10T08:54:53;24.38;;;13.77;;
38479;SDS011;62333;51.980;5.934;2023-05-10T08:57:19;17.75;;;11.57;;
38479;SDS011;62333;51.980;5.934;2023-05-10T08:59:45;18.48;;;11.98;;
38479;SDS011;62333;51.980;5.934;2023-05-10T09:02:11;14.50;;;10.52;;
38479;SDS011;62333;51.980;5.934;2023-05-10T09:04:38;15.90;;;10.95;;
38479;SDS011;62333;51.980;5.934;2023-05-10T09:07:06;16.40;;;10.68;;
38479;SDS011;62333;51.980;5.934;2023-05-10T09:09:32;15.70;;;10.63;;
38479;SDS011;62333;51.980;5.934;2023-05-10T09:11:59;13.07;;;9.15;;
38479;SDS011;62333;51.980;5.934;2023-05-10T09:14:25;14.43;;;9.70;;
38479;SDS011;62333;51.980;5.934;2023-05-10T09:16:51;12.73;;;9.50;;
38479;SDS011;62333;51.980;5.934;2023-05-10T09:19:20;11.65;;;7.95;;
38479;SDS011;62333;51.980;5.934;2023-05-10T09:21:45;10.40;;;7.45;;
38479;SDS011;62333;51.980;5.934;2023-05-10T09:24:11;9.27;;;7.45;;
38479;SDS011;62333;51.980;5.934;2023-05-10T09:26:45;12.40;;;7.60;;
38479;SDS011;62333;51.980;5.934;2023-05-10T09:29:13;8.73;;;5.63;;
38479;SDS011;62333;51.980;5.934;2023-05-10T09:31:43;7.50;;;5.53;;
38479;SDS011;62333;51.980;5.934;2023-05-10T09:34:19;7.15;;;4.47;;
38479;SDS011;62333;51.980;5.934;2023-05-10T09:36:51;5.35;;;4.18;;
38479;SDS011;62333;51.980;5.934;2023-05-10T09:39:18;6.60;;;4.30;;
38479;SDS011;62333;51.980;5.934;2023-05-10T09:41:44;7.57;;;5.13;;
38479;SDS011;62333;51.980;5.934;2023-05-10T09:44:09;5.70;;;3.40;;
38479;SDS011;62333;51.980;5.934;2023-05-10T09:46:35;5.97;;;3.92;;
38479;SDS011;62333;51.980;5.934;2023-05-10T09:49:01;5.63;;;3.25;;
38479;SDS011;62333;51.980;5.934;2023-05-10T09:51:27;7.50;;;4.70;;
38479;SDS011;62333;51.980;5.934;2023-05-10T09:54:11;6.05;;;4.43;;
38479;SDS011;62333;51.980;5.934;2023-05-10T09:56:39;7.20;;;4.50;;
38479;SDS011;62333;51.980;5.934;2023-05-10T09:59:06;7.93;;;4.00;;
38479;SDS011;62333;51.980;5.934;2023-05-10T10:01:33;7.32;;;3.40;;
38479;SDS011;62333;51.980;5.934;2023-05-10T10:04:02;6.32;;;3.80;;
38479;SDS011;62333;51.980;5.934;2023-05-10T10:06:38;6.68;;;4.32;;
38479;SDS011;62333;51.980;5.934;2023-05-10T10:09:08;6.13;;;3.58;;
38479;SDS011;62333;51.980;5.934;2023-05-10T10:11:37;4.95;;;2.90;;
38479;SDS011;62333;51.980;5.934;2023-05-10T10:14:04;5.72;;;3.58;;
38479;SDS011;62333;51.980;5.934;2023-05-10T10:16:30;6.55;;;3.63;;
38479;SDS011;62333;51.980;5.934;2023-05-10T10:18:57;4.88;;;2.78;;
38479;SDS011;62333;51.980;5.934;2023-05-10T10:21:23;5.13;;;3.40;;
38479;SDS011;62333;51.980;5.934;2023-05-10T10:23:49;9.20;;;4.60;;
38479;SDS011;62333;51.980;5.934;2023-05-10T10:26:15;8.30;;;5.43;;
38479;SDS011;62333;51.980;5.934;2023-05-10T10:34:06;5.97;;;4.35;;
38479;SDS011;62333;51.980;5.934;2023-05-10T10:36:47;10.15;;;5.75;;
38479;SDS011;62333;51.980;5.934;2023-05-10T10:39:13;8.18;;;4.25;;
38479;SDS011;62333;51.980;5.934;2023-05-10T10:41:40;11.20;;;5.13;;
38479;SDS011;62333;51.980;5.934;2023-05-10T10:44:33;6.57;;;3.85;;
38479;SDS011;62333;51.980;5.934;2023-05-10T10:52:23;5.13;;;3.55;;
38479;SDS011;62333;51.980;5.934;2023-05-10T10:57:25;6.00;;;4.28;;
38479;SDS011;62333;51.980;5.934;2023-05-10T10:59:51;8.63;;;6.15;;
38479;SDS011;62333;51.980;5.934;2023-05-10T11:05:23;10.00;;;5.90;;
38479;SDS011;62333;51.980;5.934;2023-05-10T11:07:58;7.22;;;4.72;;
38479;SDS011;62333;51.980;5.934;2023-05-10T11:10:25;8.68;;;4.93;;
38479;SDS011;62333;51.980;5.934;2023-05-10T11:13:01;6.43;;;4.70;;
38479;SDS011;62333;51.980;5.934;2023-05-10T11:15:33;7.18;;;4.88;;
38479;SDS011;62333;51.980;5.934;2023-05-10T11:18:15;7.13;;;4.38;;
38479;SDS011;62333;51.980;5.934;2023-05-10T11:20:42;8.55;;;4.97;;
38479;SDS011;62333;51.980;5.934;2023-05-10T11:23:12;7.43;;;3.30;;
38479;SDS011;62333;51.980;5.934;2023-05-10T11:25:43;9.48;;;5.00;;
38479;SDS011;62333;51.980;5.934;2023-05-10T11:28:13;6.82;;;3.67;;
38479;SDS011;62333;51.980;5.934;2023-05-10T11:30:40;6.53;;;3.17;;
38479;SDS011;62333;51.980;5.934;2023-05-10T11:33:07;4.80;;;3.20;;
38479;SDS011;62333;51.980;5.934;2023-05-10T11:35:37;10.18;;;4.50;;
38479;SDS011;62333;51.980;5.934;2023-05-10T11:38:10;6.65;;;4.43;;
38479;SDS011;62333;51.980;5.934;2023-05-10T11:40:37;8.75;;;4.70;;
38479;SDS011;62333;51.980;5.934;2023-05-10T11:43:04;27.85;;;5.32;;
38479;SDS011;62333;51.980;5.934;2023-05-10T11:45:34;9.00;;;6.18;;
38479;SDS011;62333;51.980;5.934;2023-05-10T11:48:01;6.63;;;4.50;;
38479;SDS011;62333;51.980;5.934;2023-05-10T11:50:27;7.05;;;4.63;;
38479;SDS011;62333;51.980;5.934;2023-05-10T11:52:54;7.47;;;3.63;;
38479;SDS011;62333;51.980;5.934;2023-05-10T11:55:20;5.70;;;3.67;;
38479;SDS011;62333;51.980;5.934;2023-05-10T11:57:46;5.68;;;3.83;;
38479;SDS011;62333;51.980;5.934;2023-05-10T12:00:13;4.40;;;3.72;;
38479;SDS011;62333;51.980;5.934;2023-05-10T12:02:39;6.00;;;3.20;;
38479;SDS011;62333;51.980;5.934;2023-05-10T12:05:05;11.25;;;3.42;;
38479;SDS011;62333;51.980;5.934;2023-05-10T12:07:32;6.18;;;3.42;;
38479;SDS011;62333;51.980;5.934;2023-05-10T12:12:40;4.18;;;2.97;;
38479;SDS011;62333;51.980;5.934;2023-05-10T12:15:10;4.68;;;2.47;;
38479;SDS011;62333;51.980;5.934;2023-05-10T12:17:46;4.70;;;2.60;;
38479;SDS011;62333;51.980;5.934;2023-05-10T12:20:22;4.45;;;3.22;;
38479;SDS011;62333;51.980;5.934;2023-05-10T12:22:58;5.05;;;2.80;;
38479;SDS011;62333;51.980;5.934;2023-05-10T12:25:30;4.15;;;2.83;;
38479;SDS011;62333;51.980;5.934;2023-05-10T12:28:00;4.43;;;2.05;;
38479;SDS011;62333;51.980;5.934;2023-05-10T12:30:29;4.85;;;3.17;;
38479;SDS011;62333;51.980;5.934;2023-05-10T12:33:07;5.80;;;2.75;;
38479;SDS011;62333;51.980;5.934;2023-05-10T12:35:43;4.60;;;2.85;;
38479;SDS011;62333;51.980;5.934;2023-05-10T12:41:02;6.63;;;3.38;;
38479;SDS011;62333;51.980;5.934;2023-05-10T12:43:30;4.97;;;2.70;;
38479;SDS011;62333;51.980;5.934;2023-05-10T12:45:55;6.18;;;3.08;;
38479;SDS011;62333;51.980;5.934;2023-05-10T12:48:21;3.35;;;1.70;;
38479;SDS011;62333;51.980;5.934;2023-05-10T12:50:47;4.53;;;2.05;;
38479;SDS011;62333;51.980;5.934;2023-05-10T12:53:14;7.00;;;2.92;;
38479;SDS011;62333;51.980;5.934;2023-05-10T12:55:43;2.97;;;1.45;;
38479;SDS011;62333;51.980;5.934;2023-05-10T12:58:09;6.00;;;2.70;;
38479;SDS011;62333;51.980;5.934;2023-05-10T13:00:35;5.65;;;1.85;;
38479;SDS011;62333;51.980;5.934;2023-05-10T13:03:03;4.95;;;2.50;;
38479;SDS011;62333;51.980;5.934;2023-05-10T13:05:31;3.03;;;1.30;;
38479;SDS011;62333;51.980;5.934;2023-05-10T13:07:59;3.85;;;1.70;;
38479;SDS011;62333;51.980;5.934;2023-05-10T13:10:25;4.80;;;2.25;;
38479;SDS011;62333;51.980;5.934;2023-05-10T13:12:51;4.85;;;2.60;;
38479;SDS011;62333;51.980;5.934;2023-05-10T13:15:16;5.75;;;2.58;;
38479;SDS011;62333;51.980;5.934;2023-05-10T13:17:42;4.13;;;2.20;;
38479;SDS011;62333;51.980;5.934;2023-05-10T13:20:10;4.13;;;2.08;;
38479;SDS011;62333;51.980;5.934;2023-05-10T13:22:36;3.88;;;1.92;;
38479;SDS011;62333;51.980;5.934;2023-05-10T13:25:02;3.00;;;1.67;;
38479;SDS011;62333;51.980;5.934;2023-05-10T13:27:27;4.18;;;2.17;;
38479;SDS011;62333;51.980;5.934;2023-05-10T13:29:53;5.68;;;2.28;;
38479;SDS011;62333;51.980;5.934;2023-05-10T13:32:19;3.83;;;1.65;;
38479;SDS011;62333;51.980;5.934;2023-05-10T13:34:45;3.38;;;1.92;;
38479;SDS011;62333;51.980;5.934;2023-05-10T13:37:11;4.63;;;3.03;;
38479;SDS011;62333;51.980;5.934;2023-05-10T13:39:37;4.25;;;1.95;;
38479;SDS011;62333;51.980;5.934;2023-05-10T13:42:03;5.00;;;2.35;;
38479;SDS011;62333;51.980;5.934;2023-05-10T13:44:29;3.20;;;1.70;;
38479;SDS011;62333;51.980;5.934;2023-05-10T13:46:55;3.42;;;2.20;;
38479;SDS011;62333;51.980;5.934;2023-05-10T13:49:21;4.00;;;1.85;;
38479;SDS011;62333;51.980;5.934;2023-05-10T13:51:47;4.25;;;1.88;;
38479;SDS011;62333;51.980;5.934;2023-05-10T13:54:13;3.97;;;1.70;;
38479;SDS011;62333;51.980;5.934;2023-05-10T13:56:39;6.10;;;3.92;;
38479;SDS011;62333;51.980;5.934;2023-05-10T13:59:06;3.47;;;2.40;;
38479;SDS011;62333;51.980;5.934;2023-05-10T14:01:32;4.35;;;2.53;;
38479;SDS011;62333;51.980;5.934;2023-05-10T14:03:59;3.70;;;2.63;;
38479;SDS011;62333;51.980;5.934;2023-05-10T14:06:24;5.95;;;2.10;;
38479;SDS011;62333;51.980;5.934;2023-05-10T14:08:52;3.92;;;3.13;;
38479;SDS011;62333;51.980;5.934;2023-05-10T14:11:18;6.82;;;3.83;;
38479;SDS011;62333;51.980;5.934;2023-05-10T14:13:44;7.20;;;3.72;;
38479;SDS011;62333;51.980;5.934;2023-05-10T14:16:10;4.70;;;2.78;;
38479;SDS011;62333;51.980;5.934;2023-05-10T14:18:36;4.60;;;3.13;;
38479;SDS011;62333;51.980;5.934;2023-05-10T14:21:02;5.93;;;4.10;;
38479;SDS011;62333;51.980;5.934;2023-05-10T14:23:28;4.68;;;3.38;;
38479;SDS011;62333;51.980;5.934;2023-05-10T14:25:55;5.05;;;4.03;;
38479;SDS011;62333;51.980;5.934;2023-05-10T14:28:21;5.72;;;3.60;;
38479;SDS011;62333;51.980;5.934;2023-05-10T14:30:48;4.55;;;3.28;;
38479;SDS011;62333;51.980;5.934;2023-05-10T14:33:14;6.28;;;4.28;;
38479;SDS011;62333;51.980;5.934;2023-05-10T14:35:41;6.78;;;3.65;;
38479;SDS011;62333;51.980;5.934;2023-05-10T14:38:06;4.43;;;3.13;;
38479;SDS011;62333;51.980;5.934;2023-05-10T14:40:32;4.82;;;3.60;;
38479;SDS011;62333;51.980;5.934;2023-05-10T14:42:58;5.20;;;3.80;;
38479;SDS011;62333;51.980;5.934;2023-05-10T14:45:24;5.53;;;4.70;;
38479;SDS011;62333;51.980;5.934;2023-05-10T14:47:49;7.22;;;4.30;;
38479;SDS011;62333;51.980;5.934;2023-05-10T14:50:15;3.90;;;2.67;;
38479;SDS011;62333;51.980;5.934;2023-05-10T14:52:42;3.42;;;1.85;;
38479;SDS011;62333;51.980;5.934;2023-05-10T14:55:09;6.32;;;2.03;;
38479;SDS011;62333;51.980;5.934;2023-05-10T14:57:34;2.67;;;1.73;;
38479;SDS011;62333;51.980;5.934;2023-05-10T15:00:00;2.85;;;1.33;;
38479;SDS011;62333;51.980;5.934;2023-05-10T15:02:27;2.85;;;1.50;;
38479;SDS011;62333;51.980;5.934;2023-05-10T15:04:53;2.90;;;1.15;;
38479;SDS011;62333;51.980;5.934;2023-05-10T15:07:18;2.25;;;0.85;;
38479;SDS011;62333;51.980;5.934;2023-05-10T15:09:44;2.45;;;1.10;;
38479;SDS011;62333;51.980;5.934;2023-05-10T15:12:10;2.72;;;1.33;;